Time;durP1;ratioP1;P1;durP2;ratioP2;P2;SDS_P1;SDS_P2;PMS_P1;PMS_P2;Temp;Humidity;BMP_temperature;BMP_pressure;BME280_temperature;BME280_humidity;BME280_pressure;Samples;Min_cycle;Max_cycle;Signal;HPM_P1;HPM_P2
2023/04/01 00:00:48;;;;;;;1.55;0.50;;;7.20;99.90;;;6.53;100.00;95906.63;5023442;28;20032;-38
2023/04/01 00:03:13;;;;;;;3.20;0.65;;;7.20;99.90;;;6.55;100.00;95891.69;5021175;28;20032;-38
2023/04/01 00:05:39;;;;;;;3.40;0.60;;;7.10;99.90;;;6.54;100.00;95903.94;5037407;28;20068;-38
2023/04/01 00:08:05;;;;;;;2.67;0.60;;;7.10;99.90;;;6.51;100.00;95901.44;5032238;28;20032;-39
2023/04/01 00:10:31;;;;;;;1.48;0.52;;;7.20;99.90;;;6.58;100.00;95897.63;5033490;28;20646;-38
2023/04/01 00:12:57;;;;;;;6.78;0.73;;;7.20;99.90;;;6.68;100.00;95903.31;5031346;28;20037;-38
2023/04/01 00:15:22;;;;;;;3.53;0.60;;;7.30;99.90;;;6.74;100.00;95895.19;5032198;28;20025;-38
2023/04/01 00:17:49;;;;;;;0.90;0.50;;;7.30;99.90;;;6.75;100.00;95904.75;5033064;28;20047;-38
2023/04/01 00:20:15;;;;;;;1.85;0.60;;;7.30;99.90;;;6.80;100.00;95896.66;5030772;28;20032;-38
2023/04/01 00:22:41;;;;;;;2.80;0.63;;;7.40;99.90;;;6.87;100.00;95882.34;5035277;28;20033;-39
2023/04/01 00:25:07;;;;;;;3.35;0.70;;;7.50;99.90;;;6.91;100.00;95894.41;5032979;28;20052;-38
2023/04/01 00:27:33;;;;;;;2.85;0.50;;;7.50;99.90;;;6.94;100.00;95899.50;5034913;28;20056;-38
2023/04/01 00:29:58;;;;;;;1.10;0.47;;;7.50;99.90;;;6.73;100.00;95879.53;5030900;28;20041;-39
2023/04/01 00:32:25;;;;;;;1.35;0.63;;;7.50;99.90;;;6.81;100.00;95909.69;5035177;28;20053;-38
2023/04/01 00:34:52;;;;;;;3.05;0.65;;;7.40;99.90;;;6.81;100.00;95908.84;5030300;28;20025;-38
2023/04/01 00:37:20;;;;;;;2.15;0.57;;;7.40;99.90;;;6.79;100.00;95901.06;5027062;28;20044;-38
2023/04/01 00:39:46;;;;;;;1.85;0.77;;;7.40;99.90;;;6.76;100.00;95897.72;5024782;28;20257;-38
2023/04/01 00:42:13;;;;;;;3.85;0.90;;;7.30;99.90;;;6.72;100.00;95910.13;5027065;28;20094;-38
2023/04/01 00:44:40;;;;;;;2.90;0.70;;;7.30;99.90;;;6.74;100.00;95910.91;5030897;28;20036;-38
2023/04/01 00:47:06;;;;;;;2.28;0.60;;;7.30;99.90;;;6.83;100.00;95914.88;5029032;28;20088;-38
2023/04/01 00:49:39;;;;;;;2.58;0.60;;;7.40;99.90;;;6.94;100.00;95906.50;5031262;28;20182;-38
2023/04/01 00:52:07;;;;;;;1.83;0.60;;;7.50;99.90;;;7.01;100.00;95916.63;5030422;28;20083;-38
2023/04/01 00:54:35;;;;;;;2.58;0.77;;;7.60;99.90;;;7.12;100.00;95920.53;5026820;28;20052;-38
2023/04/01 00:57:11;;;;;;;2.80;0.70;;;7.70;99.90;;;7.14;100.00;95918.69;5028351;28;20040;-38
2023/04/01 00:59:44;;;;;;;1.27;0.50;;;7.70;99.90;;;7.18;100.00;95920.25;5024755;28;20063;-38
2023/04/01 01:02:12;;;;;;;3.95;1.15;;;7.80;99.90;;;7.20;100.00;95914.00;5024921;28;20312;-38
2023/04/01 01:04:39;;;;;;;2.65;0.60;;;7.80;99.90;;;7.19;100.00;95917.53;5030518;28;20072;-38
2023/04/01 01:07:22;;;;;;;2.33;0.70;;;7.80;99.90;;;7.23;100.00;95920.88;5029000;28;20033;-38
2023/04/01 01:10:18;;;;;;;3.35;0.90;;;7.80;99.90;;;7.19;100.00;95914.91;5024373;28;20032;-38
2023/04/01 01:13:09;;;;;;;3.25;0.60;;;7.80;99.90;;;7.09;100.00;95911.06;5027244;28;20606;-38
2023/04/01 01:15:57;;;;;;;2.25;0.70;;;7.70;99.90;;;7.01;100.00;95905.31;5040950;28;20033;-39
2023/04/01 01:18:37;;;;;;;4.00;0.63;;;7.70;99.90;;;7.00;100.00;95909.72;5034206;28;20116;-38
2023/04/01 01:21:30;;;;;;;1.52;0.60;;;7.60;99.90;;;6.98;100.00;95901.06;5042988;28;20481;-38
2023/04/01 01:24:14;;;;;;;;;;;7.60;99.90;;;7.00;100.00;95901.84;5030328;28;20029;-38
2023/04/01 01:27:16;;;;;;;2.42;0.70;;;7.60;99.90;;;7.01;100.00;95903.53;5024568;28;19966;-39
2023/04/01 01:30:11;;;;;;;4.03;0.73;;;7.70;99.90;;;7.02;100.00;95907.88;5024808;28;20038;-38
2023/04/01 01:32:49;;;;;;;2.83;0.80;;;7.70;99.90;;;7.02;100.00;95909.63;5031688;28;20534;-38
2023/04/01 01:35:59;;;;;;;1.45;0.50;;;7.60;99.90;;;7.01;100.00;95913.16;5028720;28;20029;-38
2023/04/01 01:38:31;;;;;;;5.68;0.90;;;7.60;99.90;;;7.03;100.00;95914.81;5031878;28;20524;-38
2023/04/01 01:42:02;;;;;;;2.45;0.63;;;7.60;99.90;;;7.07;100.00;95913.75;5014978;28;20071;-38
2023/04/01 01:44:30;;;;;;;2.88;0.68;;;7.70;99.90;;;7.12;100.00;95912.66;5025806;28;20362;-38
2023/04/01 01:46:57;;;;;;;2.20;0.80;;;7.70;99.90;;;7.11;100.00;95900.50;5029867;28;20035;-38
2023/04/01 01:49:23;;;;;;;4.18;0.95;;;7.70;99.90;;;7.15;100.00;95917.78;5031358;28;20103;-38
2023/04/01 01:51:49;;;;;;;1.50;0.68;;;7.70;99.90;;;7.17;100.00;95911.53;5024144;28;20063;-38
2023/04/01 01:54:17;;;;;;;1.95;0.68;;;7.80;99.90;;;7.16;100.00;95911.59;5024722;28;20041;-38
2023/04/01 01:56:48;;;;;;;3.47;0.60;;;7.80;99.90;;;7.14;100.00;95913.44;5023427;28;20082;-39
2023/04/01 01:59:18;;;;;;;4.00;0.80;;;7.80;99.90;;;7.14;100.00;95908.19;5029099;28;20236;-39
2023/04/01 02:01:49;;;;;;;4.30;0.63;;;7.70;99.90;;;7.13;100.00;95902.13;5029700;28;20029;-39
2023/04/01 02:04:16;;;;;;;1.73;0.77;;;7.70;99.90;;;6.97;100.00;95867.91;5028264;28;20048;-38
2023/04/01 02:06:52;;;;;;;2.47;0.60;;;7.70;99.90;;;7.13;100.00;95893.41;5024385;28;20041;-39
2023/04/01 02:09:18;;;;;;;0.88;0.47;;;7.70;99.90;;;7.10;100.00;95898.78;5024103;28;21653;-38
2023/04/01 02:12:03;;;;;;;3.25;0.45;;;7.70;99.90;;;6.98;100.00;95884.47;5028154;28;20037;-39
2023/04/01 02:14:43;;;;;;;2.22;0.55;;;7.70;99.90;;;7.02;100.00;95899.16;5030081;28;20102;-38
2023/04/01 02:17:15;;;;;;;0.40;0.40;;;7.60;99.90;;;7.02;100.00;95896.53;5031558;28;20037;-38
2023/04/01 02:19:50;;;;;;;1.63;0.40;;;7.60;99.90;;;6.99;100.00;95902.75;5033945;28;20730;-38
2023/04/01 02:22:26;;;;;;;1.17;0.50;;;7.60;99.90;;;7.02;100.00;95913.09;5015961;28;20037;-38
2023/04/01 02:24:58;;;;;;;2.58;0.50;;;7.60;99.90;;;7.00;100.00;95907.09;5034595;22;20563;-37
2023/04/01 02:27:24;;;;;;;2.08;0.40;;;7.60;99.90;;;7.01;100.00;95906.16;5019410;28;20244;-37
2023/04/01 02:29:51;;;;;;;1.85;0.57;;;7.60;99.90;;;7.01;100.00;95914.00;5015370;28;20029;-37
2023/04/01 02:32:19;;;;;;;2.13;0.70;;;7.60;99.90;;;6.98;100.00;95908.94;5021008;28;20546;-36
2023/04/01 02:34:46;;;;;;;1.63;0.52;;;7.60;99.90;;;6.93;100.00;95905.69;5017567;28;20053;-37
2023/04/01 02:37:13;;;;;;;2.97;0.63;;;7.60;99.90;;;6.91;100.00;95907.53;5023817;28;20041;-37
2023/04/01 02:39:40;;;;;;;1.65;0.70;;;7.50;99.90;;;6.81;100.00;95909.69;5040676;28;20056;-37
2023/04/01 02:42:06;;;;;;;1.10;0.60;;;7.40;99.90;;;6.75;100.00;95907.38;5015778;28;20540;-37
2023/04/01 02:44:32;;;;;;;1.00;0.43;;;7.40;99.90;;;6.65;100.00;95895.59;5021105;28;20296;-37
2023/04/01 02:46:57;;;;;;;1.95;0.52;;;7.30;99.90;;;6.56;100.00;95906.50;5017693;28;20037;-37
2023/04/01 02:49:23;;;;;;;1.60;0.47;;;7.20;99.90;;;6.53;100.00;95910.09;5020747;28;20025;-37
2023/04/01 02:51:49;;;;;;;3.20;0.50;;;7.20;99.90;;;6.47;100.00;95907.75;5016790;28;20033;-37
2023/04/01 02:54:15;;;;;;;1.02;0.43;;;7.10;99.90;;;6.40;100.00;95907.16;5027712;28;20029;-37
2023/04/01 02:56:41;;;;;;;2.10;0.63;;;7.10;99.90;;;6.46;100.00;95906.03;5024348;28;20453;-38
2023/04/01 02:59:06;;;;;;;0.80;0.40;;;7.10;99.90;;;6.45;100.00;95901.75;5024181;28;20052;-38
2023/04/01 03:01:32;;;;;;;0.55;0.28;;;7.10;99.90;;;6.47;100.00;95900.75;5021343;28;20029;-38
2023/04/01 03:03:58;;;;;;;0.60;0.38;;;7.10;99.90;;;6.45;100.00;95913.06;5021848;28;20036;-36
2023/04/01 03:06:23;;;;;;;1.40;0.35;;;7.10;99.90;;;6.47;100.00;95905.97;5026161;28;20060;-37
2023/04/01 03:08:49;;;;;;;3.60;0.50;;;7.20;99.90;;;6.56;100.00;95909.97;5025845;28;20151;-37
2023/04/01 03:11:15;;;;;;;1.20;0.52;;;7.20;99.90;;;6.61;100.00;95908.00;5027864;28;20025;-37
2023/04/01 03:13:40;;;;;;;1.45;0.35;;;7.30;99.90;;;6.67;100.00;95912.94;5028811;28;20473;-37
2023/04/01 03:16:06;;;;;;;1.08;0.30;;;7.30;99.90;;;6.65;100.00;95895.59;5030924;28;20090;-37
2023/04/01 03:18:32;;;;;;;0.77;0.43;;;7.30;99.90;;;6.69;100.00;95912.88;5029009;28;20057;-37
2023/04/01 03:21:20;;;;;;;0.75;0.20;;;7.30;99.90;;;6.46;100.00;95885.97;5024738;28;20120;-37
2023/04/01 03:23:45;;;;;;;1.60;0.20;;;7.30;99.90;;;6.55;100.00;95910.03;5024298;28;20037;-37
2023/04/01 03:26:11;;;;;;;0.17;0.17;;;7.20;99.90;;;6.43;100.00;95911.44;5024617;28;20060;-37
2023/04/01 03:28:37;;;;;;;2.78;0.40;;;7.10;99.90;;;6.21;100.00;95885.31;5020847;28;20509;-37
2023/04/01 03:31:03;;;;;;;2.95;0.43;;;7.00;99.90;;;6.29;100.00;95902.41;5023567;28;20037;-37
2023/04/01 03:33:29;;;;;;;0.60;0.30;;;7.00;99.90;;;6.35;100.00;95909.13;5028586;28;20132;-37
2023/04/01 03:35:54;;;;;;;0.43;0.28;;;6.90;99.90;;;6.36;100.00;95913.47;5029120;28;20488;-37
2023/04/01 03:38:20;;;;;;;0.65;0.15;;;7.00;99.90;;;6.33;100.00;95904.91;5028561;28;20425;-37
2023/04/01 03:40:46;;;;;;;1.30;0.40;;;7.00;99.90;;;6.33;100.00;95908.34;5026738;28;20033;-38
2023/04/01 03:43:12;;;;;;;1.40;0.28;;;7.00;99.90;;;6.37;100.00;95899.47;5022315;28;20041;-37
2023/04/01 03:45:50;;;;;;;0.50;0.20;;;7.00;99.90;;;6.41;100.00;95906.25;5030313;28;20318;-37
2023/04/01 03:48:16;;;;;;;0.30;0.25;;;7.00;99.90;;;6.42;100.00;95904.47;5027608;28;20056;-37
2023/04/01 03:50:43;;;;;;;2.35;0.40;;;7.00;99.90;;;6.42;100.00;95902.72;5025548;28;20091;-37
2023/04/01 03:53:09;;;;;;;1.95;0.50;;;7.00;99.90;;;6.39;100.00;95907.22;5024186;28;20119;-37
2023/04/01 03:55:38;;;;;;;1.55;0.50;;;7.00;99.90;;;6.44;100.00;95902.63;5031845;28;20183;-37
2023/04/01 03:58:05;;;;;;;0.63;0.30;;;7.00;99.90;;;6.30;100.00;95887.56;5030019;28;20063;-37
2023/04/01 04:00:31;;;;;;;2.05;0.43;;;7.00;99.90;;;6.23;100.00;95892.22;5025730;28;20126;-37
2023/04/01 04:02:57;;;;;;;0.47;0.30;;;6.90;99.90;;;6.19;100.00;95897.63;5026363;28;20564;-37
2023/04/01 04:05:24;;;;;;;2.70;0.43;;;6.90;99.90;;;6.19;100.00;95895.03;5025023;28;20044;-37
2023/04/01 04:07:51;;;;;;;2.42;0.40;;;6.80;99.90;;;6.15;100.00;95889.06;5030414;28;20063;-38
2023/04/01 04:10:16;;;;;;;0.88;0.28;;;6.80;99.90;;;6.15;100.00;95894.31;5029444;28;20029;-37
2023/04/01 04:12:42;;;;;;;3.85;0.60;;;6.80;99.90;;;6.19;100.00;95887.16;5025579;28;20036;-37
2023/04/01 04:15:09;;;;;;;0.60;0.28;;;6.80;99.90;;;6.20;100.00;95881.03;5022530;28;20017;-37
2023/04/01 04:17:35;;;;;;;4.28;0.50;;;6.80;99.90;;;6.28;100.00;95884.13;5028586;28;20056;-37
2023/04/01 04:20:01;;;;;;;0.70;0.40;;;6.90;99.90;;;6.35;100.00;95887.34;5027015;28;20476;-38
2023/04/01 04:22:26;;;;;;;1.33;0.50;;;7.00;99.90;;;6.33;100.00;95887.41;5025451;28;20029;-37
2023/04/01 04:24:52;;;;;;;1.42;0.25;;;7.00;99.90;;;6.34;100.00;95886.50;5021538;28;20075;-37
2023/04/01 04:27:18;;;;;;;0.57;0.35;;;7.00;99.90;;;6.25;100.00;95887.75;5027891;28;20167;-37
2023/04/01 04:29:44;;;;;;;0.93;0.32;;;6.90;99.90;;;6.13;100.00;95880.44;5028518;28;20497;-37
2023/04/01 04:32:09;;;;;;;2.30;0.50;;;6.80;99.90;;;5.99;100.00;95885.41;5029433;28;20052;-37
2023/04/01 04:34:35;;;;;;;1.30;0.40;;;6.70;99.90;;;6.00;100.00;95889.75;5027727;28;20041;-37
2023/04/01 04:37:01;;;;;;;1.00;0.40;;;6.70;99.90;;;5.92;100.00;95880.44;5030020;28;20032;-37
2023/04/01 04:39:27;;;;;;;0.80;0.30;;;6.60;99.90;;;5.84;100.00;95885.13;5024735;28;20033;-36
2023/04/01 04:41:52;;;;;;;0.38;0.20;;;6.50;99.90;;;5.87;100.00;95890.25;5023694;28;20033;-37
2023/04/01 04:44:18;;;;;;;1.67;0.40;;;6.50;99.90;;;5.89;100.00;95883.16;5018450;28;20040;-37
2023/04/01 04:46:44;;;;;;;1.38;0.60;;;6.60;99.90;;;5.95;100.00;95886.44;5025945;28;20037;-37
2023/04/01 04:49:09;;;;;;;1.10;0.60;;;6.60;99.90;;;5.90;100.00;95878.78;5029873;28;20025;-37
2023/04/01 04:51:35;;;;;;;1.83;0.47;;;6.60;99.90;;;5.87;100.00;95879.78;5026311;28;20110;-37
2023/04/01 04:54:05;;;;;;;2.00;0.57;;;6.50;99.90;;;5.83;100.00;95875.59;5026529;28;20025;-37
2023/04/01 04:56:32;;;;;;;2.75;0.40;;;6.50;99.90;;;5.90;100.00;95879.66;5028141;28;20040;-37
2023/04/01 04:58:59;;;;;;;2.15;0.40;;;6.60;99.90;;;5.93;100.00;95876.88;5027649;28;20033;-37
2023/04/01 05:01:25;;;;;;;2.20;0.50;;;6.60;99.90;;;5.91;100.00;95868.25;5024451;28;20525;-37
2023/04/01 05:03:51;;;;;;;2.08;0.43;;;6.60;99.90;;;5.74;100.00;95842.81;5026913;28;20114;-37
2023/04/01 05:06:18;;;;;;;1.85;0.57;;;6.60;99.90;;;5.84;100.00;95881.66;5028873;28;20025;-37
2023/04/01 05:08:45;;;;;;;0.68;0.40;;;6.50;99.90;;;5.77;100.00;95870.59;5029657;28;20034;-37
2023/04/01 05:11:17;;;;;;;2.40;0.60;;;6.50;99.90;;;5.72;100.00;95860.34;5028435;28;20033;-37
2023/04/01 05:13:43;;;;;;;1.65;0.20;;;6.40;99.90;;;5.76;100.00;95858.47;5017187;28;20165;-37
2023/04/01 05:16:12;;;;;;;2.72;0.40;;;6.40;99.90;;;5.76;100.00;95866.31;5026830;28;20037;-37
2023/04/01 05:18:38;;;;;;;0.45;0.30;;;6.40;99.90;;;5.70;100.00;95861.31;5030559;28;20135;-38
2023/04/01 05:21:07;;;;;;;0.63;0.28;;;6.40;99.90;;;5.70;100.00;95861.31;5032386;28;20028;-37
2023/04/01 05:23:33;;;;;;;2.53;0.40;;;6.40;99.90;;;5.69;100.00;95863.09;5029568;28;20032;-37
2023/04/01 05:26:02;;;;;;;1.45;0.40;;;6.40;99.90;;;5.66;100.00;95850.13;5021735;28;20040;-37
2023/04/01 05:28:28;;;;;;;2.92;0.50;;;6.40;99.90;;;5.74;100.00;95849.81;5019375;28;20040;-37
2023/04/01 05:30:53;;;;;;;0.95;0.43;;;6.40;99.90;;;5.78;100.00;95853.13;5016632;28;20029;-37
2023/04/01 05:33:19;;;;;;;0.57;0.40;;;6.40;99.90;;;5.92;100.00;95848.16;5020330;28;20021;-37
2023/04/01 05:35:45;;;;;;;2.28;0.73;;;6.60;99.90;;;6.06;100.00;95851.06;5018089;28;20351;-38
2023/04/01 05:38:10;;;;;;;1.65;0.80;;;6.70;99.90;;;6.20;100.00;95849.63;5012994;28;20051;-37
2023/04/01 05:40:36;;;;;;;1.88;0.50;;;6.80;99.90;;;6.28;100.00;95866.69;5012039;28;20043;-37
2023/04/01 05:43:02;;;;;;;1.92;0.60;;;6.90;99.90;;;6.40;100.00;95848.72;5019336;28;20037;-37
2023/04/01 05:45:27;;;;;;;3.28;0.60;;;7.00;99.90;;;6.49;100.00;95848.31;5022929;28;20040;-37
2023/04/01 05:47:53;;;;;;;2.72;0.70;;;7.10;99.90;;;6.59;100.00;95844.34;5026185;28;20939;-37
2023/04/01 05:50:19;;;;;;;1.13;0.45;;;7.20;99.90;;;6.71;100.00;95847.31;5022731;28;20716;-37
2023/04/01 05:52:45;;;;;;;1.30;0.50;;;7.30;99.90;;;6.84;100.00;95837.97;5021072;28;20047;-37
2023/04/01 05:55:11;;;;;;;3.60;0.52;;;7.40;99.90;;;6.90;100.00;95845.53;5018007;28;20033;-37
2023/04/01 05:57:37;;;;;;;2.45;0.57;;;7.50;99.90;;;6.87;100.00;95825.56;5016649;28;20090;-37
2023/04/01 06:00:04;;;;;;;2.38;0.70;;;7.60;99.90;;;6.93;100.00;95819.19;5018682;28;20041;-37
2023/04/01 06:02:30;;;;;;;1.42;0.50;;;7.70;99.90;;;7.20;100.00;95839.75;5013891;28;20033;-37
2023/04/01 06:05:14;;;;;;;1.75;0.45;;;7.80;99.90;;;7.40;100.00;95847.50;5015359;28;20546;-37
2023/04/01 06:07:40;;;;;;;1.20;0.50;;;7.90;99.90;;;7.48;100.00;95831.38;5011252;28;20036;-37
2023/04/01 06:10:19;;;;;;;1.88;0.63;;;8.00;99.90;;;7.62;100.00;95833.31;5011445;28;20037;-37
2023/04/01 06:13:05;;;;;;;3.30;0.65;;;8.20;99.90;;;7.71;100.00;95832.00;5016683;28;20043;-37
2023/04/01 06:15:55;;;;;;;1.67;0.50;;;8.30;99.90;;;7.89;100.00;95817.09;5020651;28;20118;-37
2023/04/01 06:18:57;;;;;;;2.13;0.43;;;8.40;99.90;;;7.94;100.00;95834.28;5015019;28;20028;-37
2023/04/01 06:22:03;;;;;;;0.68;0.40;;;8.50;99.90;;;7.91;100.00;95817.84;5031384;28;20036;-37
2023/04/01 06:25:03;;;;;;;0.90;0.38;;;8.60;99.90;;;8.07;100.00;95828.41;5031428;28;20033;-38
2023/04/01 06:28:14;;;;;;;1.90;0.40;;;8.60;99.90;;;8.15;100.00;95840.22;5006838;28;20069;-37
2023/04/01 06:31:06;;;;;;;0.75;0.40;;;8.70;99.90;;;8.24;100.00;95833.63;4992999;28;20111;-37
2023/04/01 06:33:42;;;;;;;3.22;0.90;;;8.80;99.90;;;8.32;100.00;95834.06;4992765;28;20447;-37
2023/04/01 06:37:00;;;;;;;2.97;0.43;;;8.90;99.90;;;8.44;100.00;95839.66;5014732;28;20447;-37
2023/04/01 06:39:34;;;;;;;1.25;0.50;;;9.00;99.90;;;8.42;100.00;95839.72;5018420;28;20455;-37
2023/04/01 06:42:49;;;;;;;2.15;0.65;;;9.00;99.90;;;8.48;100.00;95847.28;5024717;28;20033;-37
2023/04/01 06:46:01;;;;;;;1.75;0.50;;;9.10;99.90;;;8.58;100.00;95847.66;5012772;28;20048;-36
2023/04/01 06:48:54;;;;;;;2.42;0.57;;;9.20;99.90;;;8.58;100.00;95839.75;5024606;28;20043;-36
2023/04/01 06:51:45;;;;;;;2.10;0.70;;;9.20;99.90;;;8.50;100.00;95832.25;5026302;28;20116;-37
2023/04/01 06:54:21;;;;;;;0.95;0.40;;;9.20;99.90;;;8.54;100.00;95843.47;5045214;28;23262;-36
2023/04/01 06:56:55;;;;;;;2.13;0.52;;;9.20;99.90;;;8.58;100.00;95837.97;5023516;28;20473;-36
2023/04/01 06:59:25;;;;;;;2.63;0.40;;;9.20;99.90;;;8.68;100.00;95842.72;5026246;28;20037;-36
2023/04/01 07:01:55;;;;;;;1.95;0.50;;;9.30;99.90;;;8.78;100.00;95836.88;5021554;28;20029;-36
2023/04/01 07:04:31;;;;;;;1.58;0.40;;;9.40;99.90;;;8.78;100.00;95849.19;5039747;28;20041;-36
2023/04/01 07:07:25;;;;;;;1.77;0.38;;;9.40;99.90;;;8.91;100.00;95847.56;5037902;28;20033;-36
2023/04/01 07:09:55;;;;;;;1.98;0.57;;;9.50;99.90;;;9.03;100.00;95839.97;5043240;28;20029;-36
2023/04/01 07:12:35;;;;;;;0.95;0.38;;;9.60;99.90;;;9.09;100.00;95850.13;5023400;28;20306;-36
2023/04/01 07:15:14;;;;;;;1.27;0.40;;;9.70;99.90;;;9.11;100.00;95846.47;5025722;28;20473;-36
2023/04/01 07:17:43;;;;;;;1.55;0.50;;;9.70;99.90;;;9.08;100.00;95848.41;5038183;28;20786;-37
2023/04/01 07:20:32;;;;;;;1.45;0.50;;;9.70;99.90;;;9.04;100.00;95853.00;5030883;28;20040;-36
2023/04/01 07:23:01;;;;;;;1.50;0.50;;;9.70;99.90;;;9.04;100.00;95846.91;5038958;28;20033;-37
2023/04/01 07:25:42;;;;;;;3.05;0.50;;;9.70;99.90;;;9.03;100.00;95861.00;5027989;28;20132;-36
2023/04/01 07:28:16;;;;;;;1.02;0.40;;;9.70;99.90;;;8.99;100.00;95860.31;5017328;28;20039;-36
2023/04/01 07:30:57;;;;;;;2.08;0.38;;;9.60;99.90;;;8.97;100.00;95863.03;5029842;28;20037;-36
2023/04/01 07:33:51;;;;;;;1.37;0.60;;;9.60;99.90;;;8.90;100.00;95856.41;5020431;28;20224;-36
2023/04/01 07:36:46;;;;;;;0.85;0.43;;;9.50;99.90;;;8.87;100.00;95868.88;5026807;28;20040;-36
2023/04/01 07:39:43;;;;;;;3.97;0.47;;;9.50;99.90;;;8.86;100.00;95873.25;5027761;28;21381;-36
2023/04/01 07:42:39;;;;;;;2.05;0.50;;;9.50;99.90;;;8.85;100.00;95870.75;5042781;28;20029;-36
2023/04/01 07:45:14;;;;;;;2.00;0.50;;;9.50;99.90;;;8.83;100.00;95873.44;5023221;28;20067;-36
2023/04/01 07:47:59;;;;;;;2.33;0.70;;;9.50;99.90;;;8.92;100.00;95870.31;5010964;28;20030;-36
2023/04/01 07:50:32;;;;;;;0.80;0.40;;;9.60;99.90;;;9.05;100.00;95865.22;5026941;28;20029;-36
2023/04/01 07:53:24;;;;;;;1.70;0.63;;;9.70;99.90;;;9.12;100.00;95869.19;5020379;28;20285;-36
2023/04/01 07:56:02;;;;;;;1.13;0.50;;;9.80;99.90;;;9.29;100.00;95857.72;5020551;28;20444;-36
2023/04/01 07:58:49;;;;;;;1.13;0.43;;;9.90;99.90;;;9.48;100.00;95864.59;5020235;28;20047;-37
2023/04/01 08:01:21;;;;;;;0.52;0.32;;;10.10;99.90;;;9.58;100.00;95855.22;5029654;28;20706;-36
2023/04/01 08:04:23;;;;;;;3.80;0.60;;;10.20;99.90;;;9.66;100.00;95871.44;5024813;28;20033;-36
2023/04/01 08:06:57;;;;;;;0.28;0.20;;;10.30;99.90;;;9.79;100.00;95863.66;5023651;28;20044;-36
2023/04/01 08:09:50;;;;;;;5.22;0.60;;;10.40;99.90;;;9.89;100.00;95874.53;5020653;28;20029;-36
2023/04/01 08:13:16;;;;;;;2.25;0.90;;;10.50;99.90;;;9.91;100.00;95873.47;5027323;28;20104;-36
2023/04/01 08:15:57;;;;;;;1.83;0.40;;;10.50;99.90;;;9.88;100.00;95868.38;5005919;28;20096;-36
2023/04/01 08:18:44;;;;;;;2.30;0.50;;;10.60;99.90;;;9.96;100.00;95877.63;5020847;28;20041;-36
2023/04/01 08:21:40;;;;;;;2.05;0.65;;;10.60;99.90;;;10.01;100.00;95872.94;5023232;28;20057;-35
2023/04/01 08:24:27;;;;;;;2.47;0.50;;;10.60;99.90;;;10.11;100.00;95887.25;5036983;22;20048;-37
2023/04/01 08:27:03;;;;;;;2.45;0.55;;;10.80;99.90;;;10.09;100.00;95882.09;5008950;28;20041;-36
2023/04/01 08:30:15;;;;;;;2.20;0.65;;;10.80;99.90;;;10.21;100.00;95888.41;5036081;28;20028;-36
2023/04/01 08:32:48;;;;;;;1.60;0.63;;;10.80;99.90;;;10.24;100.00;95877.69;5029587;28;20124;-36
2023/04/01 08:35:32;;;;;;;1.50;0.38;;;10.90;99.90;;;10.18;100.00;95885.13;5000389;28;20045;-36
2023/04/01 08:38:06;;;;;;;1.75;0.50;;;10.90;99.90;;;10.06;100.00;95886.69;5008471;28;20125;-37
2023/04/01 08:41:28;;;;;;;1.30;0.40;;;10.80;99.90;;;9.82;100.00;95889.81;4998974;28;20493;-36
2023/04/01 08:44:10;;;;;;;1.50;0.25;;;10.70;99.90;;;9.69;100.00;95891.44;5008749;28;20049;-35
2023/04/01 08:47:40;;;;;;;3.70;0.80;;;10.40;99.90;;;9.38;100.00;95892.34;5011303;28;20041;-36
2023/04/01 08:50:24;;;;;;;2.25;0.77;;;10.10;99.90;;;9.14;100.00;95884.91;4980733;28;20095;-36
2023/04/01 08:53:33;;;;;;;3.90;0.75;;;9.90;99.90;;;8.76;100.00;95849.25;5004477;28;20371;-36
2023/04/01 08:56:15;;;;;;;0.40;0.30;;;9.60;99.90;;;8.90;100.00;95872.19;5010603;28;20113;-36
2023/04/01 08:59:14;;;;;;;1.50;0.52;;;9.60;99.90;;;9.01;100.00;95868.97;4993139;28;20502;-36
2023/04/01 09:02:04;;;;;;;1.52;0.40;;;9.60;99.90;;;9.01;100.00;95858.44;5006875;28;20134;-36
2023/04/01 09:05:07;;;;;;;3.22;0.63;;;9.70;99.90;;;9.16;100.00;95877.78;5012195;28;20055;-36
2023/04/01 09:07:57;;;;;;;2.28;0.40;;;9.70;99.90;;;9.19;100.00;95877.59;5012552;28;20041;-36
2023/04/01 09:10:47;;;;;;;2.22;0.45;;;9.90;99.90;;;9.03;100.00;95845.22;5010222;28;20091;-36
2023/04/01 09:13:52;;;;;;;2.60;0.63;;;9.90;99.90;;;9.17;100.00;95876.84;4985362;28;20033;-36
2023/04/01 09:17:14;;;;;;;1.63;0.50;;;9.90;99.90;;;9.30;100.00;95888.38;5010482;28;20120;-36
2023/04/01 09:20:18;;;;;;;0.90;0.45;;;10.00;99.90;;;9.38;100.00;95876.56;4946040;28;20503;-37
2023/04/01 09:23:29;;;;;;;2.33;0.50;;;10.10;99.90;;;9.53;100.00;95880.97;4932085;28;20045;-37
2023/04/01 09:25:57;;;;;;;1.55;0.57;;;10.30;99.90;;;9.77;100.00;95885.75;5003302;28;20049;-37
2023/04/01 09:29:10;;;;;;;0.82;0.40;;;10.50;99.90;;;10.03;100.00;95894.75;5003101;28;20339;-37
2023/04/01 09:31:57;;;;;;;2.17;0.52;;;10.70;99.90;;;10.38;100.00;95897.97;5004738;28;20029;-37
2023/04/01 09:34:44;;;;;;;0.60;0.30;;;11.00;99.90;;;10.55;100.00;95872.38;5008219;28;20096;-37
2023/04/01 09:37:34;;;;;;;0.52;0.20;;;11.30;99.90;;;10.59;100.00;95879.19;5010489;28;20518;-37
2023/04/01 09:40:37;;;;;;;0.77;0.40;;;11.40;99.90;;;10.56;100.00;95892.53;5014567;28;20038;-37
2023/04/01 09:43:22;;;;;;;3.08;0.20;;;11.40;99.90;;;10.47;100.00;95899.22;5011925;28;20036;-37
2023/04/01 09:46:14;;;;;;;0.43;0.25;;;11.20;99.90;;;10.24;100.00;95900.56;4989476;28;20056;-37
2023/04/01 09:48:55;;;;;;;0.55;0.30;;;11.10;99.90;;;9.96;100.00;95893.41;5004562;28;20060;-37
2023/04/01 09:52:13;;;;;;;2.28;0.10;;;10.90;99.90;;;9.82;100.00;95896.88;5011252;28;20547;-36
2023/04/01 09:55:15;;;;;;;0.30;0.20;;;10.70;99.90;;;9.98;100.00;95905.56;4993097;28;20052;-37
2023/04/01 09:58:22;;;;;;;0.73;0.15;;;10.70;99.90;;;10.07;100.00;95906.84;5003447;28;20393;-37
2023/04/01 10:00:56;;;;;;;0.52;0.25;;;10.70;99.90;;;10.08;100.00;95911.97;4990061;28;20026;-37
2023/04/01 10:03:52;;;;;;;0.30;0.20;;;10.90;99.90;;;10.00;100.00;95887.06;5003127;28;20037;-37
2023/04/01 10:06:57;;;;;;;1.73;0.20;;;10.90;99.90;;;10.19;100.00;95910.50;5002128;28;23093;-37
2023/04/01 10:10:05;;;;;;;0.45;0.20;;;11.00;99.90;;;9.99;100.00;95883.56;4988652;28;20037;-37
2023/04/01 10:13:04;;;;;;;1.15;0.22;;;11.00;99.90;;;10.32;100.00;95927.34;5012828;28;20037;-36
2023/04/01 10:16:11;;;;;;;4.38;0.50;;;11.10;99.90;;;10.36;100.00;95914.81;5007176;28;20116;-37
2023/04/01 10:18:52;;;;;;;3.60;0.40;;;11.20;99.90;;;10.62;100.00;95926.41;5013203;28;20029;-37
2023/04/01 10:21:39;;;;;;;0.13;0.10;;;11.40;99.90;;;10.64;100.00;95927.16;5023534;28;20481;-37
2023/04/01 10:24:45;;;;;;;3.30;0.38;;;11.50;99.90;;;10.86;100.00;95913.53;5010340;28;20095;-36
2023/04/01 10:27:34;;;;;;;2.65;0.40;;;11.60;99.90;;;11.10;100.00;95918.22;5011629;28;20549;-35
2023/04/01 10:30:40;;;;;;;0.63;0.20;;;11.90;99.90;;;11.34;100.00;95929.00;4991366;28;20037;-37
2023/04/01 10:33:46;;;;;;;0.38;0.17;;;12.10;99.90;;;11.19;100.00;95913.22;5014565;28;21530;-36
2023/04/01 10:36:53;;;;;;;0.57;0.20;;;12.10;99.90;;;11.04;100.00;95928.22;5015960;28;20037;-36
2023/04/01 10:40:05;;;;;;;0.22;0.10;;;11.90;99.90;;;10.85;100.00;95917.09;5016493;28;20128;-36
2023/04/01 10:42:52;;;;;;;1.23;0.30;;;11.70;99.90;;;10.68;100.00;95923.44;4974324;28;20041;-37
2023/04/01 10:46:02;;;;;;;0.30;0.30;;;11.50;99.90;;;10.63;100.00;95931.59;4990856;28;20037;-37
2023/04/01 10:49:04;;;;;;;0.43;0.22;;;11.40;99.90;;;10.61;100.00;95922.09;5015106;28;20537;-37
2023/04/01 10:51:59;;;;;;;0.32;0.28;;;11.40;99.90;;;10.67;100.00;95922.56;5014370;28;20528;-37
2023/04/01 10:54:46;;;;;;;0.30;0.20;;;11.40;99.90;;;10.56;100.00;95910.97;5013384;28;20033;-37
2023/04/01 10:57:48;;;;;;;0.10;0.10;;;11.30;99.90;;;10.54;100.00;95931.31;4991302;28;20044;-36
2023/04/01 11:01:03;;;;;;;0.22;0.20;;;11.30;99.90;;;10.45;100.00;95923.00;4986539;28;20693;-36
2023/04/01 11:04:28;;;;;;;0.00;0.00;;;11.30;99.90;;;10.55;100.00;95925.97;5003346;28;20128;-36
2023/04/01 11:07:49;;;;;;;0.40;0.20;;;11.30;99.90;;;10.71;100.00;95928.50;5004239;28;20029;-36
2023/04/01 11:10:52;;;;;;;0.65;0.20;;;11.40;99.90;;;11.09;100.00;95925.31;4990875;28;20384;-36
2023/04/01 11:13:33;;;;;;;0.43;0.10;;;11.70;99.90;;;11.35;100.00;95936.84;5011517;28;20037;-36